Time;durP1;ratioP1;P1;durP2;ratioP2;P2;SDS_P1;SDS_P2;PMS_P1;PMS_P2;Temp;Humidity;BMP_temperature;BMP_pressure;BME280_temperature;BME280_humidity;BME280_pressure;Samples;Min_cycle;Max_cycle;Signal;HPM_P1;HPM_P2
2022/03/08 00:02:04;;;;;;;18.45;10.90;;;;;;;-2.08;100.00;90453.44;5033969;28;20044;-62
2022/03/08 00:04:29;;;;;;;18.20;10.88;;;;;;;-2.08;100.00;90458.66;5016154;28;20105;-62
2022/03/08 00:06:55;;;;;;;21.63;12.63;;;;;;;-2.07;100.00;90453.19;5033777;28;20388;-62
2022/03/08 00:09:21;;;;;;;19.60;11.55;;;;;;;-1.96;100.00;90459.31;5033873;28;20034;-62
2022/03/08 00:11:46;;;;;;;19.08;10.93;;;;;;;-2.04;100.00;90452.72;5033757;28;20029;-62
2022/03/08 00:14:12;;;;;;;21.02;12.43;;;;;;;-2.06;100.00;90446.94;5033576;28;20400;-62
2022/03/08 00:16:38;;;;;;;20.13;12.40;;;;;;;-2.06;100.00;90441.72;5033572;28;20116;-61
2022/03/08 00:19:03;;;;;;;23.73;12.85;;;;;;;-2.08;100.00;90437.81;5033525;28;20587;-62
2022/03/08 00:21:29;;;;;;;26.58;12.88;;;;;;;-2.20;100.00;90420.50;5033579;28;20071;-62
2022/03/08 00:23:55;;;;;;;23.52;11.32;;;;;;;-2.12;100.00;90440.91;5033566;28;20495;-62
2022/03/08 00:26:22;;;;;;;24.83;12.98;;;;;;;-2.14;100.00;90436.97;5033687;28;20065;-62
2022/03/08 00:28:47;;;;;;;22.55;12.38;;;;;;;-2.07;100.00;90431.56;5033443;28;20036;-62
2022/03/08 00:31:13;;;;;;;25.52;14.18;;;;;;;-2.11;100.00;90434.66;5033424;28;20055;-61
2022/03/08 00:33:39;;;;;;;31.30;14.57;;;;;;;-2.22;100.00;90425.16;5033339;28;20029;-61
2022/03/08 00:38:31;;;;;;;31.10;14.25;;;;;;;-2.34;100.00;90424.53;5202156;22;20478;-65
2022/03/08 00:40:56;;;;;;;20.80;11.20;;;;;;;-2.37;100.00;90421.59;5053207;28;20021;-65
2022/03/08 00:43:21;;;;;;;19.33;11.88;;;;;;;-2.42;100.00;90419.72;5053184;28;20029;-65
2022/03/08 00:45:47;;;;;;;21.88;12.43;;;;;;;-2.49;100.00;90421.75;5051721;28;20531;-65
2022/03/08 00:48:12;;;;;;;31.33;16.00;;;;;;;-2.46;100.00;90416.03;5053003;28;20033;-65
2022/03/08 00:50:38;;;;;;;26.75;14.38;;;;;;;-2.43;100.00;90425.97;5052997;28;20405;-64
2022/03/08 00:53:04;;;;;;;19.33;12.38;;;;;;;-2.47;100.00;90417.06;5052984;28;20029;-65
2022/03/08 00:55:32;;;;;;;24.20;13.63;;;;;;;-2.47;100.00;90409.25;5052902;28;20032;-65
2022/03/08 00:57:58;;;;;;;18.73;12.27;;;;;;;-2.37;100.00;90419.78;5052758;28;20395;-65
2022/03/08 01:00:26;;;;;;;21.13;12.40;;;;;;;-2.32;100.00;90421.66;5052764;28;20040;-65
2022/03/08 01:02:52;;;;;;;23.60;13.95;;;;;;;-2.42;100.00;90419.72;5052834;28;20032;-65
2022/03/08 01:05:18;;;;;;;27.80;15.45;;;;;;;-2.37;100.00;90414.56;5052766;28;20025;-65
2022/03/08 01:07:45;;;;;;;22.95;13.00;;;;;;;-2.37;100.00;90411.97;5052603;28;20048;-65
2022/03/08 01:10:15;;;;;;;18.67;11.18;;;;;;;-2.30;100.00;90415.19;5052671;28;20114;-65
2022/03/08 01:12:41;;;;;;;20.00;12.63;;;;;;;-2.44;100.00;90408.78;5052841;28;20033;-65
2022/03/08 01:15:08;;;;;;;18.95;11.43;;;;;;;-2.30;100.00;90409.97;5052458;28;20103;-65
2022/03/08 01:17:34;;;;;;;23.67;13.48;;;;;;;-2.25;100.00;90407.41;5052421;28;20112;-65
2022/03/08 01:20:00;;;;;;;23.58;13.07;;;;;;;-2.37;100.00;90409.34;5052441;28;20029;-65
2022/03/08 01:22:25;;;;;;;20.08;12.10;;;;;;;-2.39;100.00;90414.03;5052400;28;20035;-65
2022/03/08 01:24:52;;;;;;;21.80;13.25;;;;;;;-2.54;100.00;90411.25;5052407;28;20104;-65
2022/03/08 01:27:17;;;;;;;23.27;12.07;;;;;;;-2.49;100.00;90413.94;5052342;28;20029;-65
2022/03/08 01:29:42;;;;;;;18.58;11.50;;;;;;;-2.55;100.00;90407.84;5052319;28;20118;-65
2022/03/08 01:32:09;;;;;;;17.83;11.32;;;;;;;-2.69;100.00;90413.66;5052288;28;20028;-65
2022/03/08 01:34:34;;;;;;;18.85;10.98;;;;;;;-2.72;100.00;90404.53;5051992;28;20470;-65
2022/03/08 01:37:01;;;;;;;16.92;10.50;;;;;;;-2.66;100.00;90405.41;5051890;28;20087;-65
2022/03/08 01:39:27;;;;;;;19.38;11.30;;;;;;;-2.79;100.00;90396.91;5052105;28;20025;-65
2022/03/08 01:41:52;;;;;;;19.65;12.10;;;;;;;-2.74;100.00;90414.41;5052039;28;20509;-65
2022/03/08 01:44:19;;;;;;;18.83;11.95;;;;;;;-2.73;100.00;90405.56;5051921;28;20414;-65
2022/03/08 01:46:45;;;;;;;20.15;11.60;;;;;;;-2.62;100.00;90415.06;5051830;28;20029;-65
2022/03/08 01:49:11;;;;;;;18.60;11.57;;;;;;;-2.69;100.00;90421.47;5051871;28;20039;-65
2022/03/08 01:51:39;;;;;;;21.55;11.85;;;;;;;-2.86;100.00;90409.31;5051792;28;20029;-65
2022/03/08 01:54:05;;;;;;;20.05;11.20;;;;;;;-2.69;100.00;90424.06;5051791;28;20478;-65
2022/03/08 01:56:31;;;;;;;20.30;11.90;;;;;;;-2.72;100.00;90428.75;5051219;28;20032;-65
2022/03/08 01:58:57;;;;;;;18.98;11.13;;;;;;;-2.67;100.00;90432.47;5051666;28;20041;-65
2022/03/08 02:01:22;;;;;;;19.02;10.98;;;;;;;-2.64;100.00;90434.56;5051608;28;20029;-65
2022/03/08 02:03:48;;;;;;;17.15;10.65;;;;;;;-2.66;100.00;90442.63;5051519;28;20060;-65
2022/03/08 02:06:14;;;;;;;21.80;12.60;;;;;;;-2.65;100.00;90433.78;5051529;28;20040;-65
2022/03/08 02:08:41;;;;;;;18.27;10.75;;;;;;;-2.58;100.00;90433.59;5051561;28;20060;-65
2022/03/08 02:11:06;;;;;;;20.60;11.68;;;;;;;-2.50;100.00;90436.56;5051538;28;20051;-65
2022/03/08 02:13:31;;;;;;;19.80;11.07;;;;;;;-2.47;100.00;90435.31;5051492;28;20061;-65
2022/03/08 02:15:57;;;;;;;18.70;10.88;;;;;;;-2.52;100.00;90427.44;5051348;28;20457;-65
2022/03/08 02:18:22;;;;;;;17.17;10.65;;;;;;;-2.50;100.00;90435.78;5051201;28;20040;-65
2022/03/08 02:20:48;;;;;;;17.33;10.40;;;;;;;-2.54;100.00;90442.50;5051295;28;20511;-65
2022/03/08 02:23:14;;;;;;;18.90;11.30;;;;;;;-2.48;100.00;90433.72;5051361;28;20532;-65
2022/03/08 02:25:40;;;;;;;18.38;11.20;;;;;;;-2.44;100.00;90434.81;5051492;28;20486;-64
2022/03/08 02:28:06;;;;;;;17.40;10.57;;;;;;;-2.53;100.00;90431.81;5051350;28;20043;-64
2022/03/08 02:30:32;;;;;;;16.80;10.65;;;;;;;-2.48;100.00;90433.72;5051247;28;20110;-65
2022/03/08 02:32:57;;;;;;;19.40;10.95;;;;;;;-2.49;100.00;90432.16;5051176;28;20076;-64
2022/03/08 02:35:27;;;;;;;18.58;11.23;;;;;;;-2.44;100.00;90424.38;5051179;28;20033;-65
2022/03/08 02:37:58;;;;;;;21.40;11.50;;;;;;;-2.44;100.00;90427.00;5050829;28;20521;-65
2022/03/08 02:40:27;;;;;;;20.15;10.77;;;;;;;-2.47;100.00;90437.91;5051065;28;20052;-65
2022/03/08 02:42:53;;;;;;;22.08;11.95;;;;;;;-2.52;100.00;90436.03;5051012;28;20094;-65
2022/03/08 02:45:19;;;;;;;21.52;12.38;;;;;;;-2.53;100.00;90436.25;5050920;28;20033;-65
2022/03/08 02:47:45;;;;;;;26.10;13.82;;;;;;;-2.59;100.00;90432.81;5050787;28;20414;-65
2022/03/08 02:50:12;;;;;;;26.92;15.02;;;;;;;-2.55;100.00;90443.53;5050942;28;20033;-65
2022/03/08 02:52:41;;;;;;;29.17;15.27;;;;;;;-2.52;100.00;90440.47;5050812;28;20035;-65
2022/03/08 02:55:08;;;;;;;30.70;16.55;;;;;;;-2.46;100.00;90431.66;5050872;28;20563;-65
2022/03/08 02:57:33;;;;;;;29.67;15.80;;;;;;;-2.52;100.00;90433.44;5051051;28;20551;-65
2022/03/08 02:59:59;;;;;;;28.17;15.20;;;;;;;-2.52;100.00;90438.63;5050876;28;20037;-65
2022/03/08 03:02:24;;;;;;;27.60;15.98;;;;;;;-2.51;100.00;90435.00;5050758;28;20497;-65
2022/03/08 03:04:49;;;;;;;28.67;15.65;;;;;;;-2.52;100.00;90440.47;5050754;28;20025;-65
2022/03/08 03:07:15;;;;;;;29.05;16.20;;;;;;;-2.56;100.00;90428.94;5050725;28;20033;-65
2022/03/08 03:09:40;;;;;;;28.02;14.85;;;;;;;-2.54;100.00;90438.06;5054315;28;20021;-65
2022/03/08 03:12:06;;;;;;;27.30;14.25;;;;;;;-2.47;100.00;90438.69;5054841;28;20111;-65
2022/03/08 03:14:32;;;;;;;32.03;17.48;;;;;;;-2.53;100.00;90431.03;5054705;28;20025;-65
2022/03/08 03:16:57;;;;;;;30.00;16.27;;;;;;;-2.59;100.00;90437.22;5054647;28;20592;-65
2022/03/08 03:19:23;;;;;;;32.30;17.27;;;;;;;-2.63;100.00;90439.53;5054703;28;20098;-65
2022/03/08 03:21:48;;;;;;;31.33;16.52;;;;;;;-2.49;100.00;90439.97;5054999;28;20487;-65
2022/03/08 03:24:13;;;;;;;32.60;17.80;;;;;;;-2.56;100.00;90447.16;5054616;28;20036;-65
2022/03/08 03:26:39;;;;;;;37.28;19.02;;;;;;;-2.59;100.00;90447.66;5054490;28;20114;-65
2022/03/08 03:29:04;;;;;;;34.95;18.48;;;;;;;-2.53;100.00;90439.66;5054610;28;20087;-65
2022/03/08 03:31:30;;;;;;;33.05;18.38;;;;;;;-2.59;100.00;90435.41;5054757;28;20104;-65
2022/03/08 03:33:55;;;;;;;26.17;15.35;;;;;;;-2.67;100.00;90445.47;5054486;28;20040;-65
2022/03/08 03:36:21;;;;;;;30.52;17.30;;;;;;;-2.80;100.00;90431.78;5054242;28;20038;-65
2022/03/08 03:38:46;;;;;;;29.17;16.58;;;;;;;-2.83;100.00;90452.31;5054238;28;20124;-65
2022/03/08 03:41:12;;;;;;;34.00;18.15;;;;;;;-2.75;100.00;90454.47;5054349;28;20021;-64
2022/03/08 03:43:37;;;;;;;41.40;20.17;;;;;;;-2.67;100.00;90450.69;5036368;28;20025;-64
2022/03/08 03:46:05;;;;;;;37.05;18.52;;;;;;;-2.73;100.00;90449.81;5054039;28;20024;-66
2022/03/08 03:48:30;;;;;;;33.95;18.52;;;;;;;-2.75;100.00;90455.25;5054159;28;20029;-65
2022/03/08 03:50:55;;;;;;;35.80;18.63;;;;;;;-2.72;100.00;90454.00;5036456;28;20453;-65
2022/03/08 03:53:21;;;;;;;36.00;19.15;;;;;;;-2.80;100.00;90455.19;5054184;28;20061;-65
2022/03/08 03:55:46;;;;;;;29.55;16.40;;;;;;;-2.85;100.00;90455.13;5054103;28;20039;-65
2022/03/08 03:58:12;;;;;;;35.67;17.23;;;;;;;-2.85;100.00;90449.91;5054207;28;20029;-65
2022/03/08 04:00:37;;;;;;;32.15;16.30;;;;;;;-2.85;100.00;90457.72;5053954;28;20498;-65
2022/03/08 04:03:03;;;;;;;35.10;16.45;;;;;;;-2.88;100.00;90457.41;5053945;28;20061;-65
2022/03/08 04:05:29;;;;;;;32.95;17.40;;;;;;;-2.84;100.00;90455.91;5053862;28;20025;-65
2022/03/08 04:07:54;;;;;;;30.05;15.70;;;;;;;-2.97;100.00;90444.03;5053785;28;20041;-65
2022/03/08 04:10:20;;;;;;;31.02;15.32;;;;;;;-2.78;100.00;90463.56;5053818;28;20111;-65
2022/03/08 04:12:45;;;;;;;27.77;13.85;;;;;;;-2.88;100.00;90465.22;5053803;28;20032;-65
2022/03/08 04:15:11;;;;;;;28.83;15.93;;;;;;;-2.78;100.00;90467.97;5053747;28;20033;-64
2022/03/08 04:17:37;;;;;;;30.60;15.23;;;;;;;-2.81;100.00;90461.44;5053466;28;20039;-65
2022/03/08 04:20:05;;;;;;;33.60;16.88;;;;;;;-2.88;100.00;90454.81;5053285;28;20057;-65
2022/03/08 04:22:30;;;;;;;33.53;18.15;;;;;;;-2.78;100.00;90471.38;5053523;28;20033;-65
2022/03/08 04:24:56;;;;;;;28.77;16.35;;;;;;;-2.90;100.00;90470.66;5053634;28;20036;-65
2022/03/08 04:27:21;;;;;;;30.23;15.85;;;;;;;-2.96;100.00;90458.63;5053688;28;20460;-65
2022/03/08 04:29:47;;;;;;;27.83;14.50;;;;;;;-2.92;100.00;90454.50;5053695;28;20032;-64
2022/03/08 04:32:12;;;;;;;30.30;16.35;;;;;;;-2.92;100.00;90461.53;5053643;28;20087;-65
2022/03/08 04:34:38;;;;;;;30.70;15.75;;;;;;;-2.98;100.00;90463.28;5053342;28;20036;-64
2022/03/08 04:37:04;;;;;;;28.35;14.40;;;;;;;-2.98;100.00;90460.69;5053092;28;20040;-65
2022/03/08 04:39:29;;;;;;;31.52;16.38;;;;;;;-2.89;100.00;90463.66;5053282;28;20029;-64
2022/03/08 04:41:54;;;;;;;28.15;15.73;;;;;;;-2.85;100.00;90460.31;5035337;28;20498;-65
2022/03/08 04:44:20;;;;;;;30.60;15.93;;;;;;;-2.74;100.00;90458.66;5052998;28;20475;-65
2022/03/08 04:46:45;;;;;;;26.77;14.93;;;;;;;-2.68;100.00;90464.69;5053022;28;20021;-65
2022/03/08 04:49:11;;;;;;;27.27;15.65;;;;;;;-2.74;100.00;90461.25;5053089;28;20031;-65
2022/03/08 04:51:36;;;;;;;38.78;21.17;;;;;;;-2.78;100.00;90463.56;5053036;28;20033;-65
2022/03/08 04:54:02;;;;;;;35.95;18.90;;;;;;;-2.69;100.00;90457.91;5053008;28;20025;-64
2022/03/08 04:56:27;;;;;;;29.73;16.58;;;;;;;-2.67;100.00;90456.69;5052773;28;20021;-64
2022/03/08 04:58:53;;;;;;;33.65;18.58;;;;;;;-2.58;100.00;90464.84;5052928;28;20129;-65
2022/03/08 05:01:19;;;;;;;37.92;21.73;;;;;;;-2.60;100.00;90453.88;5052890;28;20052;-65
2022/03/08 05:03:44;;;;;;;34.60;19.20;;;;;;;-2.57;100.00;90456.00;5052818;28;20121;-65
2022/03/08 05:06:10;;;;;;;28.13;16.60;;;;;;;-2.77;100.00;90456.53;5052676;28;20060;-65
2022/03/08 05:08:35;;;;;;;31.35;16.48;;;;;;;-2.72;100.00;90457.38;5052715;28;20517;-65
2022/03/08 05:11:01;;;;;;;39.03;21.48;;;;;;;-2.62;100.00;90461.16;5052711;28;20025;-65
2022/03/08 05:13:29;;;;;;;37.78;20.42;;;;;;;-2.45;100.00;90454.06;5052696;28;20033;-65
2022/03/08 05:15:54;;;;;;;34.85;17.98;;;;;;;-2.40;100.00;90454.13;5052478;28;20029;-65
2022/03/08 05:18:20;;;;;;;29.83;16.33;;;;;;;-2.45;100.00;90454.84;5052487;28;20033;-65
2022/03/08 05:20:45;;;;;;;32.88;16.88;;;;;;;-2.51;100.00;90460.25;5052445;28;20029;-65
2022/03/08 05:23:11;;;;;;;30.88;17.52;;;;;;;-2.52;100.00;90459.47;5034478;28;20026;-66
2022/03/08 05:25:36;;;;;;;31.73;16.58;;;;;;;-2.57;100.00;90466.41;5052235;28;20025;-66
2022/03/08 05:28:02;;;;;;;32.10;17.15;;;;;;;-2.58;100.00;90459.63;5052262;28;20112;-66
2022/03/08 05:30:28;;;;;;;35.17;19.52;;;;;;;-2.59;100.00;90458.06;5051664;28;20079;-66
2022/03/08 05:32:53;;;;;;;49.08;26.65;;;;;;;-2.48;100.00;90470.97;5052170;28;20056;-66
2022/03/08 05:35:19;;;;;;;33.38;19.23;;;;;;;-2.43;100.00;90467.63;5052209;28;20516;-66
2022/03/08 05:37:44;;;;;;;32.42;17.88;;;;;;;-2.47;100.00;90469.94;5051420;28;20399;-66
2022/03/08 05:40:10;;;;;;;30.58;17.80;;;;;;;-2.42;100.00;90464.78;5051191;28;20047;-66
2022/03/08 05:42:38;;;;;;;31.38;19.25;;;;;;;-2.51;100.00;90461.03;5050217;28;20047;-66
2022/03/08 05:45:05;;;;;;;34.88;18.25;;;;;;;-2.51;100.00;90470.69;5051223;28;20463;-66
2022/03/08 05:47:30;;;;;;;30.85;17.65;;;;;;;-2.41;100.00;90476.00;5050711;28;20029;-66
2022/03/08 05:49:56;;;;;;;29.63;18.10;;;;;;;-2.52;100.00;90479.53;5050988;28;20044;-66
2022/03/08 05:52:21;;;;;;;31.95;17.92;;;;;;;-2.47;100.00;90482.19;5051215;28;20021;-66
2022/03/08 05:54:46;;;;;;;36.78;20.08;;;;;;;-2.34;100.00;90481.81;5050957;28;20051;-66
2022/03/08 05:57:12;;;;;;;39.22;21.50;;;;;;;-2.12;100.00;90479.97;5050846;28;20545;-66
2022/03/08 05:59:37;;;;;;;46.20;26.48;;;;;;;-2.29;100.00;90481.09;5051065;28;20478;-66
2022/03/08 06:02:03;;;;;;;45.67;24.85;;;;;;;-2.36;100.00;90478.69;5050856;28;20516;-66
2022/03/08 06:04:28;;;;;;;43.03;24.63;;;;;;;-2.26;100.00;90478.00;5050873;28;20094;-65
2022/03/08 06:06:54;;;;;;;38.28;20.35;;;;;;;-2.06;100.00;90482.63;5050586;28;20025;-66
2022/03/08 06:09:20;;;;;;;37.25;19.02;;;;;;;-2.02;100.00;90483.75;5050740;28;20029;-66
2022/03/08 06:11:45;;;;;;;31.50;17.77;;;;;;;-1.78;100.00;90479.81;5050691;28;20490;-66
2022/03/08 06:14:11;;;;;;;37.38;21.02;;;;;;;-1.62;100.00;90484.16;5050839;28;20032;-66
2022/03/08 06:16:36;;;;;;;42.58;23.08;;;;;;;-1.55;100.00;90491.78;5050662;28;20110;-65
2022/03/08 06:19:01;;;;;;;79.28;37.63;;;;;;;-1.60;100.00;90487.28;5050577;28;20107;-66
2022/03/08 06:21:27;;;;;;;46.55;26.65;;;;;;;-1.76;100.00;90488.19;5050607;28;20029;-66
2022/03/08 06:23:52;;;;;;;46.75;27.02;;;;;;;-1.87;100.00;90478.69;5050601;28;20032;-66
2022/03/08 06:26:18;;;;;;;41.60;22.45;;;;;;;-2.11;100.00;90484.16;5032488;28;20105;-66
2022/03/08 06:28:44;;;;;;;42.00;24.42;;;;;;;-2.17;100.00;90487.75;5050565;28;20471;-66
2022/03/08 06:31:09;;;;;;;40.58;22.60;;;;;;;-2.15;100.00;90477.88;5050498;28;20475;-66
2022/03/08 06:33:35;;;;;;;34.83;19.60;;;;;;;-2.11;100.00;90485.97;5050422;28;20410;-66
2022/03/08 06:36:00;;;;;;;39.67;19.70;;;;;;;-1.98;100.00;90488.22;5050279;28;20422;-66
2022/03/08 06:38:26;;;;;;;37.25;21.38;;;;;;;-1.75;100.00;90489.75;5011084;28;1135409;-66
2022/03/08 06:40:51;;;;;;;38.65;19.85;;;;;;;-1.70;100.00;90489.81;5051006;28;20047;-65
2022/03/08 06:43:16;;;;;;;42.03;22.83;;;;;;;-1.73;100.00;90486.94;5050820;28;20064;-65
2022/03/08 06:45:43;;;;;;;40.08;22.33;;;;;;;-1.54;100.00;90494.16;5050743;28;20037;-66
2022/03/08 06:48:10;;;;;;;37.90;20.13;;;;;;;-1.42;100.00;90495.78;5043283;28;20037;-68
2022/03/08 06:50:35;;;;;;;41.17;20.92;;;;;;;-1.18;100.00;90499.66;5034564;28;20091;-66
2022/03/08 06:53:00;;;;;;;33.35;18.20;;;;;;;-1.30;100.00;90496.44;5032268;28;20426;-66
2022/03/08 06:55:26;;;;;;;43.03;24.25;;;;;;;-1.18;100.00;90496.28;5049981;28;20477;-67
2022/03/08 06:57:51;;;;;;;38.03;21.38;;;;;;;-1.12;100.00;90490.84;5049765;28;20029;-65
2022/03/08 07:00:17;;;;;;;39.55;22.63;;;;;;;-0.96;100.00;90487.31;5032006;28;20119;-66
2022/03/08 07:02:42;;;;;;;35.88;20.05;;;;;;;-0.70;100.00;90490.09;5049470;28;20467;-67
2022/03/08 07:05:09;;;;;;;38.13;21.23;;;;;;;-0.69;100.00;90484.63;5049534;28;20044;-66
2022/03/08 07:07:34;;;;;;;41.25;24.30;;;;;;;-0.60;100.00;90484.94;5049718;28;20041;-67
2022/03/08 07:10:00;;;;;;;29.50;17.27;;;;;;;-0.54;100.00;90489.16;5049826;28;20406;-67
2022/03/08 07:12:25;;;;;;;33.15;19.70;;;;;;;-0.40;100.00;90492.91;5049780;28;20036;-66
2022/03/08 07:14:51;;;;;;;48.25;27.17;;;;;;;0.03;100.00;90487.59;5049660;28;20025;-66
2022/03/08 07:17:16;;;;;;;53.90;31.70;;;;;;;0.72;100.00;90489.88;5048952;28;20063;-66
2022/03/08 07:19:42;;;;;;;51.83;28.88;;;;;;;1.01;100.00;90482.31;5049517;28;20021;-66
2022/03/08 07:22:07;;;;;;;32.58;20.73;;;;;;;1.18;100.00;90486.22;5049815;28;20437;-66
2022/03/08 07:24:33;;;;;;;47.22;25.58;;;;;;;1.52;98.91;90482.25;5048731;28;20039;-66
2022/03/08 07:26:59;;;;;;;69.43;36.58;;;;;;;2.23;95.59;90485.47;5050251;28;20033;-66
2022/03/08 07:29:24;;;;;;;63.20;33.42;;;;;;;2.23;92.15;90487.31;5050339;28;20056;-65
2022/03/08 07:31:50;;;;;;;35.20;21.88;;;;;;;1.97;89.92;90484.78;5050124;28;20482;-66
2022/03/08 07:34:15;;;;;;;32.95;20.58;;;;;;;1.99;88.58;90487.91;5049820;28;20083;-66
2022/03/08 07:36:41;;;;;;;48.85;27.65;;;;;;;2.19;87.62;90489.66;5049858;28;20044;-66
2022/03/08 07:39:06;;;;;;;39.35;24.17;;;;;;;1.90;87.76;90481.66;5050181;28;20037;-65
2022/03/08 07:41:32;;;;;;;38.45;22.98;;;;;;;1.98;90.51;90478.47;5050237;28;20048;-65
2022/03/08 07:43:58;;;;;;;38.38;23.48;;;;;;;3.49;86.35;90487.56;5032289;28;20047;-65
2022/03/08 07:46:23;;;;;;;34.83;21.60;;;;;;;3.67;83.32;90473.72;5049746;28;20477;-65
2022/03/08 07:48:49;;;;;;;33.67;21.42;;;;;;;3.21;83.48;90475.94;5049468;28;20125;-65
2022/03/08 07:51:15;;;;;;;41.00;24.75;;;;;;;2.44;88.32;90472.25;5049917;28;20090;-66
2022/03/08 07:53:40;;;;;;;32.92;19.35;;;;;;;1.45;95.29;90477.31;5050070;28;20095;-66
2022/03/08 07:56:06;;;;;;;33.38;18.98;;;;;;;1.06;100.00;90484.91;5053675;28;20041;-66
2022/03/08 07:58:31;;;;;;;36.67;21.00;;;;;;;1.04;100.00;90481.78;5053903;28;20040;-66
2022/03/08 08:00:57;;;;;;;48.35;27.58;;;;;;;1.41;100.00;90471.00;5053805;28;20471;-66
2022/03/08 08:03:23;;;;;;;45.42;27.20;;;;;;;1.19;95.14;90473.91;5035377;28;20047;-66
2022/03/08 08:05:48;;;;;;;35.72;22.50;;;;;;;0.83;95.31;90479.16;5053474;28;20037;-65
2022/03/08 08:08:14;;;;;;;47.53;27.20;;;;;;;0.72;94.58;90474.94;5053648;28;20525;-66
2022/03/08 08:10:39;;;;;;;48.75;27.27;;;;;;;0.78;92.58;90473.88;5053566;28;20040;-66
2022/03/08 08:13:04;;;;;;;57.47;29.55;;;;;;;1.30;91.78;90456.34;5053772;28;20056;-67
2022/03/08 08:15:30;;;;;;;35.20;19.42;;;;;;;1.75;88.52;90471.22;5053445;28;20041;-66
2022/03/08 08:17:56;;;;;;;31.25;18.75;;;;;;;1.89;85.48;90477.44;5053155;28;20053;-66
2022/03/08 08:20:21;;;;;;;23.42;15.32;;;;;;;1.69;83.43;90467.00;5053429;28;20116;-65
2022/03/08 08:22:47;;;;;;;33.38;21.92;;;;;;;2.05;83.98;90467.69;5053358;28;20045;-65
2022/03/08 08:25:13;;;;;;;22.95;14.18;;;;;;;2.49;80.00;90474.84;5053219;28;20029;-65
2022/03/08 08:27:39;;;;;;;97.25;54.45;;;;;;;2.08;87.96;90473.19;5053419;28;20453;-69
2022/03/08 08:30:07;;;;;;;108.07;60.22;;;;;;;2.94;86.94;90466.69;5053234;28;20037;-65
2022/03/08 08:32:33;;;;;;;161.77;82.63;;;;;;;2.81;82.65;90471.75;5052643;28;20060;-65
2022/03/08 08:34:58;;;;;;;98.40;56.22;;;;;;;2.72;81.85;90465.53;5053106;28;20122;-64
2022/03/08 08:37:24;;;;;;;29.63;18.65;;;;;;;2.01;82.15;90464.81;5052819;28;20049;-64
2022/03/08 08:39:49;;;;;;;42.90;25.95;;;;;;;2.28;89.24;90467.06;5052873;28;20068;-64
2022/03/08 08:42:15;;;;;;;58.85;35.45;;;;;;;2.80;85.21;90464.94;5053045;28;20161;-65
2022/03/08 08:44:40;;;;;;;46.05;28.00;;;;;;;2.31;85.83;90468.38;5052784;28;20114;-64
2022/03/08 08:47:06;;;;;;;26.60;16.67;;;;;;;1.69;92.97;90464.38;5052292;28;20048;-63
2022/03/08 08:49:31;;;;;;;28.55;17.13;;;;;;;0.99;100.00;90468.69;5052771;28;20048;-63
2022/03/08 08:51:57;;;;;;;29.80;18.08;;;;;;;0.50;100.00;90456.09;5052764;28;20041;-64
2022/03/08 08:54:23;;;;;;;21.95;14.70;;;;;;;0.62;100.00;90464.44;5052622;28;20037;-62
2022/03/08 08:56:48;;;;;;;34.25;21.63;;;;;;;0.60;100.00;90456.06;5052652;28;20051;-64
2022/03/08 08:59:15;;;;;;;31.90;18.65;;;;;;;1.13;100.00;90460.03;5052543;28;20096;-63
2022/03/08 09:01:40;;;;;;;25.40;16.05;;;;;;;1.20;100.00;90470.25;5052154;28;20171;-63
2022/03/08 09:04:06;;;;;;;27.98;17.35;;;;;;;1.71;100.00;90465.69;5052522;28;20131;-64
2022/03/08 09:06:31;;;;;;;25.52;15.88;;;;;;;1.46;100.00;90465.75;5051192;28;20052;-64
2022/03/08 09:08:56;;;;;;;27.63;16.73;;;;;;;1.68;100.00;90458.38;5052517;28;20103;-65
2022/03/08 09:11:25;;;;;;;34.38;19.77;;;;;;;2.14;94.12;90452.19;5052436;28;20494;-65
2022/03/08 09:13:51;;;;;;;22.85;14.73;;;;;;;1.85;96.06;90455.44;5034421;28;20520;-65
2022/03/08 09:16:17;;;;;;;26.85;15.82;;;;;;;1.36;100.00;90461.31;5051758;28;20115;-63
2022/03/08 09:18:43;;;;;;;35.15;18.35;;;;;;;1.39;100.00;90458.16;5052406;28;20036;-63
2022/03/08 09:21:10;;;;;;;30.08;16.33;;;;;;;0.97;100.00;90460.31;5052197;28;20106;-64
2022/03/08 09:23:36;;;;;;;29.60;17.70;;;;;;;1.10;100.00;90459.75;5052089;28;20041;-64
2022/03/08 09:26:02;;;;;;;27.50;16.65;;;;;;;1.30;100.00;90459.75;5051877;28;20442;-64
2022/03/08 09:28:27;;;;;;;28.20;17.80;;;;;;;1.41;100.00;90458.66;5051897;28;20033;-64
2022/03/08 09:30:53;;;;;;;27.73;17.30;;;;;;;1.03;100.00;90461.88;5051700;28;20124;-64
2022/03/08 09:33:21;;;;;;;35.42;21.65;;;;;;;1.01;100.00;90456.09;5051795;28;20573;-65
2022/03/08 09:35:47;;;;;;;136.30;70.05;;;;;;;0.94;100.00;90466.03;5051724;28;20045;-64
2022/03/08 09:38:13;;;;;;;81.47;45.03;;;;;;;1.10;100.00;90459.75;5051671;28;20524;-64
2022/03/08 09:40:39;;;;;;;130.82;72.40;;;;;;;1.33;100.00;90459.22;5051766;28;20045;-64
2022/03/08 09:43:05;;;;;;;31.42;20.50;;;;;;;1.76;100.00;90465.69;5051913;28;20041;-64
2022/03/08 09:45:31;;;;;;;48.10;31.15;;;;;;;1.27;100.00;90455.06;5051662;28;20037;-66
2022/03/08 09:47:56;;;;;;;34.00;20.15;;;;;;;0.75;100.00;90463.94;5051757;28;20049;-66
2022/03/08 09:50:22;;;;;;;28.75;17.63;;;;;;;0.75;100.00;90468.41;5051711;28;20426;-67
2022/03/08 09:52:48;;;;;;;28.10;17.55;;;;;;;0.22;100.00;90460.72;5051741;28;20405;-66
2022/03/08 09:55:16;;;;;;;29.85;17.00;;;;;;;0.22;100.00;90463.34;5051764;28;20041;-65
2022/03/08 09:57:43;;;;;;;30.35;18.50;;;;;;;0.74;100.00;90462.38;5033729;28;20493;-65
2022/03/08 10:00:10;;;;;;;30.67;15.90;;;;;;;0.70;100.00;90463.16;5051565;28;20871;-64
2022/03/08 10:02:46;;;;;;;31.00;19.05;;;;;;;1.24;100.00;90455.56;5051739;28;20035;-63
2022/03/08 10:05:12;;;;;;;27.67;14.95;;;;;;;1.43;100.00;90451.34;5051669;28;20136;-64
2022/03/08 10:07:37;;;;;;;22.45;13.95;;;;;;;1.24;100.00;90454.78;5051361;28;20035;-65
2022/03/08 10:10:05;;;;;;;24.33;15.10;;;;;;;1.37;100.00;90460.25;5051503;28;20112;-66
2022/03/08 10:12:30;;;;;;;32.08;18.45;;;;;;;1.36;100.00;90458.69;5051228;28;20040;-64
2022/03/08 10:14:56;;;;;;;35.55;21.13;;;;;;;1.71;99.56;90465.69;5051147;28;20424;-64
2022/03/08 10:17:38;;;;;;;31.02;17.77;;;;;;;1.73;100.00;90462.78;5050810;28;20040;-64
2022/03/08 10:20:10;;;;;;;27.02;16.75;;;;;;;2.27;98.39;90462.09;5051224;28;20103;-64
2022/03/08 10:22:42;;;;;;;26.23;16.50;;;;;;;2.27;94.15;90454.22;5033319;28;20136;-65
2022/03/08 10:25:15;;;;;;;21.92;13.40;;;;;;;1.98;92.80;90457.47;5051103;28;20048;-65
2022/03/08 10:27:45;;;;;;;24.85;14.27;;;;;;;1.63;94.81;90462.84;5051064;28;20045;-65
2022/03/08 10:30:13;;;;;;;23.55;14.30;;;;;;;1.45;96.45;90457.13;5051162;28;20126;-65
2022/03/08 10:32:39;;;;;;;22.27;15.00;;;;;;;0.82;98.53;90468.94;5051103;28;20041;-65
2022/03/08 10:35:08;;;;;;;30.45;16.33;;;;;;;0.96;99.60;90474.44;5051027;28;20040;-63
2022/03/08 10:37:35;;;;;;;26.40;16.60;;;;;;;0.63;100.00;90471.25;5050784;28;20045;-64
2022/03/08 10:40:05;;;;;;;27.63;16.70;;;;;;;0.48;100.00;90484.34;5050963;28;20041;-64
2022/03/08 10:42:37;;;;;;;34.67;19.73;;;;;;;0.97;100.00;90476.81;5050959;28;20044;-65
2022/03/08 10:45:08;;;;;;;26.30;16.08;;;;;;;0.80;100.00;90478.91;5050914;28;20033;-64
2022/03/08 10:47:45;;;;;;;25.23;14.70;;;;;;;0.49;100.00;90478.06;5050819;28;20060;-65
2022/03/08 10:50:12;;;;;;;26.30;15.00;;;;;;;0.14;100.00;90476.91;5032874;28;20517;-64
2022/03/08 10:52:41;;;;;;;28.95;16.85;;;;;;;0.43;100.00;90479.88;5050589;28;20495;-65
2022/03/08 10:55:22;;;;;;;21.98;13.95;;;;;;;0.49;100.00;90480.69;5047783;28;20068;-64
2022/03/08 10:57:50;;;;;;;26.45;15.35;;;;;;;0.75;100.00;90473.63;5050636;28;20453;-64
2022/03/08 11:00:20;;;;;;;24.95;15.45;;;;;;;0.73;100.00;90475.72;5050656;28;20041;-64
2022/03/08 11:02:53;;;;;;;26.77;15.43;;;;;;;0.98;100.00;90481.00;5050952;28;20418;-64
2022/03/08 11:05:20;;;;;;;29.88;18.75;;;;;;;0.78;100.00;90468.66;5050659;28;20036;-65
2022/03/08 11:07:47;;;;;;;28.20;16.52;;;;;;;0.58;100.00;90476.50;5050624;28;20033;-64
2022/03/08 11:10:14;;;;;;;26.42;16.42;;;;;;;0.35;100.00;90471.75;5050657;28;20048;-64